sensor_id;sensor_type;location;lat;lon;timestamp;temperature;humidity
12119;DHT22;6123;48.864;9.200;2023-01-15T00:01:00;11.30;99.90
12119;DHT22;6123;48.864;9.200;2023-01-15T00:03:26;11.30;99.90
12119;DHT22;6123;48.864;9.200;2023-01-15T00:05:52;11.20;99.90
12119;DHT22;6123;48.864;9.200;2023-01-15T00:08:18;11.20;99.90
12119;DHT22;6123;48.864;9.200;2023-01-15T00:10:43;11.30;99.90
12119;DHT22;6123;48.864;9.200;2023-01-15T00:13:09;11.30;99.90
12119;DHT22;6123;48.864;9.200;2023-01-15T00:15:35;11.30;99.90
12119;DHT22;6123;48.864;9.200;2023-01-15T00:18:01;11.30;99.90
12119;DHT22;6123;48.864;9.200;2023-01-15T00:20:27;11.30;99.90
12119;DHT22;6123;48.864;9.200;2023-01-15T00:22:53;11.30;99.90
12119;DHT22;6123;48.864;9.200;2023-01-15T00:25:19;11.20;99.90
12119;DHT22;6123;48.864;9.200;2023-01-15T00:28:05;11.30;99.90
12119;DHT22;6123;48.864;9.200;2023-01-15T00:30:31;11.30;99.90
12119;DHT22;6123;48.864;9.200;2023-01-15T00:32:59;11.30;99.90
12119;DHT22;6123;48.864;9.200;2023-01-15T00:35:27;11.30;99.90
12119;DHT22;6123;48.864;9.200;2023-01-15T00:37:53;11.30;99.90
12119;DHT22;6123;48.864;9.200;2023-01-15T00:40:20;11.30;99.90
12119;DHT22;6123;48.864;9.200;2023-01-15T00:42:46;11.40;99.90
12119;DHT22;6123;48.864;9.200;2023-01-15T00:45:12;11.40;99.90
12119;DHT22;6123;48.864;9.200;2023-01-15T00:47:41;11.40;99.90
12119;DHT22;6123;48.864;9.200;2023-01-15T00:50:12;11.40;99.90
12119;DHT22;6123;48.864;9.200;2023-01-15T00:52:38;11.40;99.90
12119;DHT22;6123;48.864;9.200;2023-01-15T00:55:05;11.40;99.90
12119;DHT22;6123;48.864;9.200;2023-01-15T00:57:31;11.40;99.90
12119;DHT22;6123;48.864;9.200;2023-01-15T00:59:56;11.40;99.90
12119;DHT22;6123;48.864;9.200;2023-01-15T01:02:25;11.50;99.90
12119;DHT22;6123;48.864;9.200;2023-01-15T01:04:50;11.40;99.90
12119;DHT22;6123;48.864;9.200;2023-01-15T01:07:18;11.40;99.90
12119;DHT22;6123;48.864;9.200;2023-01-15T01:09:47;11.50;99.90
12119;DHT22;6123;48.864;9.200;2023-01-15T01:12:13;11.40;99.90
12119;DHT22;6123;48.864;9.200;2023-01-15T01:14:38;11.40;99.90
12119;DHT22;6123;48.864;9.200;2023-01-15T01:17:04;11.40;99.90
12119;DHT22;6123;48.864;9.200;2023-01-15T01:19:30;11.30;99.90
12119;DHT22;6123;48.864;9.200;2023-01-15T01:21:55;11.30;99.90
12119;DHT22;6123;48.864;9.200;2023-01-15T01:24:22;11.30;99.90
12119;DHT22;6123;48.864;9.200;2023-01-15T01:26:49;11.40;99.90
12119;DHT22;6123;48.864;9.200;2023-01-15T01:29:17;11.30;99.90
12119;DHT22;6123;48.864;9.200;2023-01-15T01:31:44;11.30;99.90
12119;DHT22;6123;48.864;9.200;2023-01-15T01:34:11;11.30;99.90
12119;DHT22;6123;48.864;9.200;2023-01-15T01:36:39;11.30;99.90
12119;DHT22;6123;48.864;9.200;2023-01-15T01:39:07;11.30;99.90
12119;DHT22;6123;48.864;9.200;2023-01-15T01:41:36;11.30;99.90
12119;DHT22;6123;48.864;9.200;2023-01-15T01:46:53;11.30;99.90
12119;DHT22;6123;48.864;9.200;2023-01-15T01:49:19;11.40;99.90
12119;DHT22;6123;48.864;9.200;2023-01-15T01:51:49;11.30;99.90
12119;DHT22;6123;48.864;9.200;2023-01-15T01:54:20;11.30;99.90
12119;DHT22;6123;48.864;9.200;2023-01-15T01:56:48;11.40;99.90
12119;DHT22;6123;48.864;9.200;2023-01-15T01:59:17;11.30;99.90
12119;DHT22;6123;48.864;9.200;2023-01-15T02:01:44;11.50;99.90
12119;DHT22;6123;48.864;9.200;2023-01-15T02:04:10;11.40;99.90
12119;DHT22;6123;48.864;9.200;2023-01-15T02:06:40;11.40;99.90
12119;DHT22;6123;48.864;9.200;2023-01-15T02:09:07;11.40;99.90
12119;DHT22;6123;48.864;9.200;2023-01-15T02:11:35;11.40;99.90
12119;DHT22;6123;48.864;9.200;2023-01-15T02:24:53;11.70;99.90
12119;DHT22;6123;48.864;9.200;2023-01-15T02:27:22;11.70;99.90
12119;DHT22;6123;48.864;9.200;2023-01-15T02:30:17;11.70;99.90
12119;DHT22;6123;48.864;9.200;2023-01-15T02:32:55;11.90;99.90
12119;DHT22;6123;48.864;9.200;2023-01-15T02:35:30;11.90;99.90
12119;DHT22;6123;48.864;9.200;2023-01-15T02:38:01;12.00;99.90
12119;DHT22;6123;48.864;9.200;2023-01-15T02:40:29;12.10;99.90
12119;DHT22;6123;48.864;9.200;2023-01-15T02:42:56;12.10;99.90
12119;DHT22;6123;48.864;9.200;2023-01-15T02:45:28;12.20;99.90
12119;DHT22;6123;48.864;9.200;2023-01-15T02:47:57;12.20;99.90
12119;DHT22;6123;48.864;9.200;2023-01-15T02:50:29;12.20;99.90
12119;DHT22;6123;48.864;9.200;2023-01-15T02:53:00;12.10;99.90
12119;DHT22;6123;48.864;9.200;2023-01-15T02:55:32;12.10;99.90
12119;DHT22;6123;48.864;9.200;2023-01-15T02:58:05;12.00;99.90
12119;DHT22;6123;48.864;9.200;2023-01-15T03:00:35;12.00;99.90
12119;DHT22;6123;48.864;9.200;2023-01-15T03:03:12;12.00;99.90
12119;DHT22;6123;48.864;9.200;2023-01-15T03:08:23;11.90;99.90
12119;DHT22;6123;48.864;9.200;2023-01-15T03:11:00;11.90;99.90
12119;DHT22;6123;48.864;9.200;2023-01-15T03:13:43;11.90;99.90
12119;DHT22;6123;48.864;9.200;2023-01-15T03:19:47;11.90;99.90
12119;DHT22;6123;48.864;9.200;2023-01-15T03:22:26;12.00;99.90
12119;DHT22;6123;48.864;9.200;2023-01-15T03:27:29;11.90;99.90
12119;DHT22;6123;48.864;9.200;2023-01-15T03:30:05;12.00;99.90
12119;DHT22;6123;48.864;9.200;2023-01-15T03:32:31;12.00;99.90
12119;DHT22;6123;48.864;9.200;2023-01-15T03:34:57;12.00;99.90
12119;DHT22;6123;48.864;9.200;2023-01-15T03:37:25;12.00;99.90
12119;DHT22;6123;48.864;9.200;2023-01-15T03:39:55;12.10;99.90
12119;DHT22;6123;48.864;9.200;2023-01-15T03:42:45;12.20;99.90
12119;DHT22;6123;48.864;9.200;2023-01-15T03:45:24;12.20;99.90
12119;DHT22;6123;48.864;9.200;2023-01-15T03:55:47;12.30;99.90
12119;DHT22;6123;48.864;9.200;2023-01-15T03:58:26;12.40;99.90
12119;DHT22;6123;48.864;9.200;2023-01-15T04:00:56;12.50;99.90
12119;DHT22;6123;48.864;9.200;2023-01-15T04:03:27;12.40;99.90
12119;DHT22;6123;48.864;9.200;2023-01-15T04:05:58;12.50;99.90
12119;DHT22;6123;48.864;9.200;2023-01-15T04:08:26;13.00;99.90
12119;DHT22;6123;48.864;9.200;2023-01-15T04:10:55;12.50;99.90
12119;DHT22;6123;48.864;9.200;2023-01-15T04:13:21;12.50;99.90
12119;DHT22;6123;48.864;9.200;2023-01-15T04:15:50;12.60;99.90
12119;DHT22;6123;48.864;9.200;2023-01-15T04:18:16;12.60;99.90
12119;DHT22;6123;48.864;9.200;2023-01-15T04:20:43;12.60;99.90
12119;DHT22;6123;48.864;9.200;2023-01-15T04:23:09;12.60;99.90
12119;DHT22;6123;48.864;9.200;2023-01-15T04:25:35;12.60;99.90
12119;DHT22;6123;48.864;9.200;2023-01-15T04:28:01;12.60;99.90
12119;DHT22;6123;48.864;9.200;2023-01-15T04:30:27;12.60;99.90
12119;DHT22;6123;48.864;9.200;2023-01-15T04:32:52;12.60;99.90
12119;DHT22;6123;48.864;9.200;2023-01-15T04:35:18;12.60;99.90
12119;DHT22;6123;48.864;9.200;2023-01-15T04:37:46;12.60;99.90
12119;DHT22;6123;48.864;9.200;2023-01-15T04:40:12;12.60;99.90
12119;DHT22;6123;48.864;9.200;2023-01-15T04:42:57;12.60;99.90
12119;DHT22;6123;48.864;9.200;2023-01-15T04:45:43;12.60;99.90
12119;DHT22;6123;48.864;9.200;2023-01-15T04:48:11;12.60;99.90
12119;DHT22;6123;48.864;9.200;2023-01-15T04:50:39;12.60;99.90
12119;DHT22;6123;48.864;9.200;2023-01-15T04:53:07;12.60;99.90
12119;DHT22;6123;48.864;9.200;2023-01-15T04:55:33;12.50;99.90
12119;DHT22;6123;48.864;9.200;2023-01-15T04:57:58;12.50;99.90
12119;DHT22;6123;48.864;9.200;2023-01-15T05:00:24;12.40;99.90
12119;DHT22;6123;48.864;9.200;2023-01-15T05:02:49;12.40;99.90
12119;DHT22;6123;48.864;9.200;2023-01-15T05:05:15;12.40;99.90
12119;DHT22;6123;48.864;9.200;2023-01-15T05:07:41;12.40;99.90
12119;DHT22;6123;48.864;9.200;2023-01-15T05:10:09;12.40;99.90
12119;DHT22;6123;48.864;9.200;2023-01-15T05:12:35;10.70;99.90
12119;DHT22;6123;48.864;9.200;2023-01-15T05:15:03;9.60;99.90
12119;DHT22;6123;48.864;9.200;2023-01-15T05:17:31;9.50;99.90
12119;DHT22;6123;48.864;9.200;2023-01-15T05:19:57;9.10;99.90
12119;DHT22;6123;48.864;9.200;2023-01-15T05:22:22;8.90;99.90
12119;DHT22;6123;48.864;9.200;2023-01-15T05:24:48;8.80;99.90
12119;DHT22;6123;48.864;9.200;2023-01-15T05:27:13;8.70;99.90
12119;DHT22;6123;48.864;9.200;2023-01-15T05:29:39;8.60;99.90
12119;DHT22;6123;48.864;9.200;2023-01-15T05:32:05;8.50;99.90
12119;DHT22;6123;48.864;9.200;2023-01-15T05:34:30;8.50;99.90
12119;DHT22;6123;48.864;9.200;2023-01-15T05:36:56;8.40;99.90
12119;DHT22;6123;48.864;9.200;2023-01-15T05:39:21;8.30;99.90
12119;DHT22;6123;48.864;9.200;2023-01-15T05:41:47;8.20;99.90
12119;DHT22;6123;48.864;9.200;2023-01-15T05:44:19;8.20;99.90
12119;DHT22;6123;48.864;9.200;2023-01-15T05:46:46;8.10;99.90
12119;DHT22;6123;48.864;9.200;2023-01-15T05:49:17;8.00;99.90
12119;DHT22;6123;48.864;9.200;2023-01-15T05:51:43;8.00;99.90
12119;DHT22;6123;48.864;9.200;2023-01-15T05:54:15;7.90;99.90
12119;DHT22;6123;48.864;9.200;2023-01-15T05:56:43;7.90;99.90
12119;DHT22;6123;48.864;9.200;2023-01-15T05:59:13;7.80;99.90
12119;DHT22;6123;48.864;9.200;2023-01-15T06:01:41;7.80;99.90
12119;DHT22;6123;48.864;9.200;2023-01-15T06:04:09;7.80;99.90
12119;DHT22;6123;48.864;9.200;2023-01-15T06:06:35;7.80;99.90
12119;DHT22;6123;48.864;9.200;2023-01-15T06:09:01;7.80;99.90
12119;DHT22;6123;48.864;9.200;2023-01-15T06:11:27;7.80;99.90
12119;DHT22;6123;48.864;9.200;2023-01-15T06:13:52;7.70;99.90
12119;DHT22;6123;48.864;9.200;2023-01-15T06:16:18;7.70;99.90
12119;DHT22;6123;48.864;9.200;2023-01-15T06:18:46;7.80;99.90
12119;DHT22;6123;48.864;9.200;2023-01-15T06:21:13;7.80;99.90
12119;DHT22;6123;48.864;9.200;2023-01-15T06:23:41;7.80;99.90
12119;DHT22;6123;48.864;9.200;2023-01-15T06:26:14;7.80;99.90
12119;DHT22;6123;48.864;9.200;2023-01-15T06:28:40;7.80;99.90
12119;DHT22;6123;48.864;9.200;2023-01-15T06:31:08;7.70;99.90
12119;DHT22;6123;48.864;9.200;2023-01-15T06:33:34;7.70;99.90
12119;DHT22;6123;48.864;9.200;2023-01-15T06:36:09;7.60;99.90
12119;DHT22;6123;48.864;9.200;2023-01-15T06:38:35;7.60;99.90
12119;DHT22;6123;48.864;9.200;2023-01-15T06:41:05;7.50;99.90
12119;DHT22;6123;48.864;9.200;2023-01-15T06:43:54;7.30;99.90
12119;DHT22;6123;48.864;9.200;2023-01-15T06:46:46;7.30;99.90
12119;DHT22;6123;48.864;9.200;2023-01-15T06:49:32;7.20;99.90
12119;DHT22;6123;48.864;9.200;2023-01-15T06:52:03;7.00;99.90
12119;DHT22;6123;48.864;9.200;2023-01-15T06:54:29;7.00;99.90
12119;DHT22;6123;48.864;9.200;2023-01-15T06:56:54;6.90;99.90
12119;DHT22;6123;48.864;9.200;2023-01-15T06:59:20;6.90;99.90
12119;DHT22;6123;48.864;9.200;2023-01-15T07:01:45;6.90;99.90
12119;DHT22;6123;48.864;9.200;2023-01-15T07:04:13;6.90;99.90
12119;DHT22;6123;48.864;9.200;2023-01-15T07:06:39;6.60;99.90
12119;DHT22;6123;48.864;9.200;2023-01-15T07:09:05;6.60;99.90
12119;DHT22;6123;48.864;9.200;2023-01-15T07:11:34;6.50;99.90
12119;DHT22;6123;48.864;9.200;2023-01-15T07:16:35;6.40;99.90
12119;DHT22;6123;48.864;9.200;2023-01-15T07:19:02;6.20;99.90
12119;DHT22;6123;48.864;9.200;2023-01-15T07:21:30;6.30;99.90
12119;DHT22;6123;48.864;9.200;2023-01-15T07:23:59;6.20;99.90
12119;DHT22;6123;48.864;9.200;2023-01-15T07:26:26;6.20;99.90
12119;DHT22;6123;48.864;9.200;2023-01-15T07:28:52;6.20;99.90
12119;DHT22;6123;48.864;9.200;2023-01-15T07:31:18;6.10;99.90
12119;DHT22;6123;48.864;9.200;2023-01-15T07:33:43;7.10;99.90
12119;DHT22;6123;48.864;9.200;2023-01-15T07:36:11;6.10;99.90
12119;DHT22;6123;48.864;9.200;2023-01-15T07:38:37;6.00;99.90
12119;DHT22;6123;48.864;9.200;2023-01-15T07:41:02;6.10;99.90
12119;DHT22;6123;48.864;9.200;2023-01-15T07:43:46;6.00;99.90
12119;DHT22;6123;48.864;9.200;2023-01-15T07:46:35;6.10;99.90
12119;DHT22;6123;48.864;9.200;2023-01-15T07:49:20;6.10;99.90
12119;DHT22;6123;48.864;9.200;2023-01-15T07:52:17;6.10;99.90
12119;DHT22;6123;48.864;9.200;2023-01-15T07:54:47;6.20;99.90
12119;DHT22;6123;48.864;9.200;2023-01-15T07:57:14;6.10;99.90
12119;DHT22;6123;48.864;9.200;2023-01-15T07:59:43;6.10;99.90
12119;DHT22;6123;48.864;9.200;2023-01-15T08:02:08;6.10;99.90
12119;DHT22;6123;48.864;9.200;2023-01-15T08:04:34;6.10;99.90
12119;DHT22;6123;48.864;9.200;2023-01-15T08:07:01;6.10;99.90
12119;DHT22;6123;48.864;9.200;2023-01-15T08:09:27;6.10;99.90
12119;DHT22;6123;48.864;9.200;2023-01-15T08:11:54;6.10;99.90
12119;DHT22;6123;48.864;9.200;2023-01-15T08:14:38;6.10;99.90
12119;DHT22;6123;48.864;9.200;2023-01-15T08:17:22;6.10;99.90
12119;DHT22;6123;48.864;9.200;2023-01-15T08:19:48;6.10;99.90
12119;DHT22;6123;48.864;9.200;2023-01-15T08:22:14;6.20;99.90
12119;DHT22;6123;48.864;9.200;2023-01-15T08:24:39;6.20;99.90
12119;DHT22;6123;48.864;9.200;2023-01-15T08:27:05;6.20;99.90
12119;DHT22;6123;48.864;9.200;2023-01-15T08:29:31;6.20;99.90
12119;DHT22;6123;48.864;9.200;2023-01-15T08:31:56;6.20;99.90
12119;DHT22;6123;48.864;9.200;2023-01-15T08:34:22;6.10;99.90
12119;DHT22;6123;48.864;9.200;2023-01-15T08:36:52;6.10;99.90
12119;DHT22;6123;48.864;9.200;2023-01-15T08:39:24;6.20;99.90
12119;DHT22;6123;48.864;9.200;2023-01-15T08:41:56;6.20;99.90
12119;DHT22;6123;48.864;9.200;2023-01-15T08:44:22;6.20;99.90
12119;DHT22;6123;48.864;9.200;2023-01-15T08:46:49;6.20;99.90
12119;DHT22;6123;48.864;9.200;2023-01-15T08:49:18;6.10;99.90
12119;DHT22;6123;48.864;9.200;2023-01-15T08:51:45;6.10;99.90
12119;DHT22;6123;48.864;9.200;2023-01-15T08:54:17;6.10;99.90
12119;DHT22;6123;48.864;9.200;2023-01-15T08:56:46;6.10;99.90
12119;DHT22;6123;48.864;9.200;2023-01-15T08:59:16;6.10;99.90
12119;DHT22;6123;48.864;9.200;2023-01-15T09:01:42;6.00;99.90
12119;DHT22;6123;48.864;9.200;2023-01-15T09:04:13;6.00;99.90
12119;DHT22;6123;48.864;9.200;2023-01-15T09:06:39;5.80;99.90
12119;DHT22;6123;48.864;9.200;2023-01-15T09:09:07;5.90;99.90
12119;DHT22;6123;48.864;9.200;2023-01-15T09:11:34;5.90;99.90
12119;DHT22;6123;48.864;9.200;2023-01-15T09:14:05;5.80;99.90
12119;DHT22;6123;48.864;9.200;2023-01-15T09:16:36;5.80;99.90
12119;DHT22;6123;48.864;9.200;2023-01-15T09:19:03;5.80;99.90
12119;DHT22;6123;48.864;9.200;2023-01-15T09:21:31;5.80;99.90
12119;DHT22;6123;48.864;9.200;2023-01-15T09:23:57;5.70;99.90
12119;DHT22;6123;48.864;9.200;2023-01-15T09:26:30;5.70;99.90
12119;DHT22;6123;48.864;9.200;2023-01-15T09:28:56;5.70;99.90
12119;DHT22;6123;48.864;9.200;2023-01-15T09:31:22;5.70;99.90
12119;DHT22;6123;48.864;9.200;2023-01-15T09:33:51;5.70;99.90
12119;DHT22;6123;48.864;9.200;2023-01-15T09:36:35;5.70;99.90
12119;DHT22;6123;48.864;9.200;2023-01-15T09:39:02;5.80;99.90
12119;DHT22;6123;48.864;9.200;2023-01-15T09:44:59;5.90;99.90
12119;DHT22;6123;48.864;9.200;2023-01-15T09:47:34;5.80;99.90
12119;DHT22;6123;48.864;9.200;2023-01-15T09:55:28;5.80;99.90
12119;DHT22;6123;48.864;9.200;2023-01-15T09:57:58;5.80;99.90
12119;DHT22;6123;48.864;9.200;2023-01-15T10:00:37;5.90;99.90
12119;DHT22;6123;48.864;9.200;2023-01-15T10:03:26;5.90;99.90
12119;DHT22;6123;48.864;9.200;2023-01-15T10:06:03;5.90;99.90
12119;DHT22;6123;48.864;9.200;2023-01-15T10:08:37;5.80;99.90
12119;DHT22;6123;48.864;9.200;2023-01-15T10:11:34;5.70;99.90
12119;DHT22;6123;48.864;9.200;2023-01-15T10:14:35;5.70;99.90
12119;DHT22;6123;48.864;9.200;2023-01-15T10:17:42;5.70;99.90
12119;DHT22;6123;48.864;9.200;2023-01-15T10:26:01;5.40;99.90
12119;DHT22;6123;48.864;9.200;2023-01-15T10:28:30;5.50;99.90
12119;DHT22;6123;48.864;9.200;2023-01-15T10:31:08;5.50;99.90
12119;DHT22;6123;48.864;9.200;2023-01-15T10:33:50;5.40;99.90
12119;DHT22;6123;48.864;9.200;2023-01-15T10:39:11;5.30;99.90
12119;DHT22;6123;48.864;9.200;2023-01-15T10:41:49;5.20;99.90
12119;DHT22;6123;48.864;9.200;2023-01-15T10:44:18;5.20;99.90
12119;DHT22;6123;48.864;9.200;2023-01-15T10:46:51;5.20;99.90
12119;DHT22;6123;48.864;9.200;2023-01-15T10:49:17;5.00;99.90
12119;DHT22;6123;48.864;9.200;2023-01-15T10:51:51;5.00;99.90
12119;DHT22;6123;48.864;9.200;2023-01-15T10:54:38;4.90;99.90
12119;DHT22;6123;48.864;9.200;2023-01-15T10:57:14;4.80;99.90
12119;DHT22;6123;48.864;9.200;2023-01-15T10:59:59;4.80;99.90
12119;DHT22;6123;48.864;9.200;2023-01-15T11:02:38;4.70;99.90
12119;DHT22;6123;48.864;9.200;2023-01-15T11:05:05;4.80;99.90
12119;DHT22;6123;48.864;9.200;2023-01-15T11:07:39;4.80;99.90
12119;DHT22;6123;48.864;9.200;2023-01-15T11:10:08;4.60;99.90
12119;DHT22;6123;48.864;9.200;2023-01-15T11:12:49;4.60;99.90
12119;DHT22;6123;48.864;9.200;2023-01-15T11:15:34;4.70;99.90
12119;DHT22;6123;48.864;9.200;2023-01-15T11:18:25;4.60;99.90
12119;DHT22;6123;48.864;9.200;2023-01-15T11:21:17;4.60;99.90
12119;DHT22;6123;48.864;9.200;2023-01-15T11:23:44;4.50;99.90
12119;DHT22;6123;48.864;9.200;2023-01-15T11:26:26;4.50;99.90
12119;DHT22;6123;48.864;9.200;2023-01-15T11:28:54;4.40;99.90
12119;DHT22;6123;48.864;9.200;2023-01-15T11:31:21;4.40;99.90
12119;DHT22;6123;48.864;9.200;2023-01-15T11:34:02;4.40;99.90
12119;DHT22;6123;48.864;9.200;2023-01-15T11:36:29;4.30;99.90
12119;DHT22;6123;48.864;9.200;2023-01-15T11:38:55;4.10;99.90
12119;DHT22;6123;48.864;9.200;2023-01-15T11:41:26;4.10;99.90
12119;DHT22;6123;48.864;9.200;2023-01-15T11:44:11;4.20;99.90
12119;DHT22;6123;48.864;9.200;2023-01-15T11:46:59;4.20;99.90
12119;DHT22;6123;48.864;9.200;2023-01-15T11:49:53;4.20;99.90
12119;DHT22;6123;48.864;9.200;2023-01-15T11:52:44;4.20;99.90
12119;DHT22;6123;48.864;9.200;2023-01-15T11:55:16;4.30;99.90
12119;DHT22;6123;48.864;9.200;2023-01-15T11:57:45;4.20;99.90
12119;DHT22;6123;48.864;9.200;2023-01-15T12:00:41;4.30;99.90
12119;DHT22;6123;48.864;9.200;2023-01-15T12:03:17;4.30;99.90
12119;DHT22;6123;48.864;9.200;2023-01-15T12:05:59;4.30;99.90
12119;DHT22;6123;48.864;9.200;2023-01-15T12:16:30;4.40;99.90
12119;DHT22;6123;48.864;9.200;2023-01-15T12:30:17;4.60;99.90
12119;DHT22;6123;48.864;9.200;2023-01-15T12:32:49;4.60;99.90
12119;DHT22;6123;48.864;9.200;2023-01-15T12:35:30;4.70;99.90
12119;DHT22;6123;48.864;9.200;2023-01-15T12:42:59;4.70;99.90
12119;DHT22;6123;48.864;9.200;2023-01-15T12:45:47;4.70;99.90
12119;DHT22;6123;48.864;9.200;2023-01-15T12:48:29;4.70;99.90
12119;DHT22;6123;48.864;9.200;2023-01-15T12:51:00;4.80;99.90
12119;DHT22;6123;48.864;9.200;2023-01-15T12:54:00;4.80;99.90
12119;DHT22;6123;48.864;9.200;2023-01-15T12:59:39;4.90;99.90
12119;DHT22;6123;48.864;9.200;2023-01-15T13:02:33;5.00;99.90
12119;DHT22;6123;48.864;9.200;2023-01-15T13:05:17;5.00;99.90
12119;DHT22;6123;48.864;9.200;2023-01-15T13:10:37;5.00;99.90
12119;DHT22;6123;48.864;9.200;2023-01-15T13:13:17;5.00;99.90
12119;DHT22;6123;48.864;9.200;2023-01-15T13:21:33;5.20;99.90
12119;DHT22;6123;48.864;9.200;2023-01-15T13:29:37;5.40;99.90
12119;DHT22;6123;48.864;9.200;2023-01-15T13:34:54;5.40;99.90
12119;DHT22;6123;48.864;9.200;2023-01-15T13:37:35;5.50;99.90
12119;DHT22;6123;48.864;9.200;2023-01-15T13:42:48;5.60;99.90
12119;DHT22;6123;48.864;9.200;2023-01-15T13:47:55;5.90;99.90
12119;DHT22;6123;48.864;9.200;2023-01-15T13:50:36;6.20;99.90
12119;DHT22;6123;48.864;9.200;2023-01-15T13:55:58;6.60;99.90
12119;DHT22;6123;48.864;9.200;2023-01-15T13:58:29;6.90;99.90
12119;DHT22;6123;48.864;9.200;2023-01-15T14:31:44;6.90;99.90
12119;DHT22;6123;48.864;9.200;2023-01-15T14:34:27;6.80;99.90
12119;DHT22;6123;48.864;9.200;2023-01-15T14:37:06;6.70;99.90
12119;DHT22;6123;48.864;9.200;2023-01-15T14:39:48;6.60;99.90
12119;DHT22;6123;48.864;9.200;2023-01-15T14:48:00;6.60;99.90
12119;DHT22;6123;48.864;9.200;2023-01-15T14:53:01;6.50;99.90
12119;DHT22;6123;48.864;9.200;2023-01-15T14:55:28;6.50;99.90
12119;DHT22;6123;48.864;9.200;2023-01-15T14:58:03;6.40;99.90
12119;DHT22;6123;48.864;9.200;2023-01-15T15:00:38;6.40;99.90
12119;DHT22;6123;48.864;9.200;2023-01-15T15:03:34;6.50;99.90
12119;DHT22;6123;48.864;9.200;2023-01-15T15:06:01;6.40;99.90
12119;DHT22;6123;48.864;9.200;2023-01-15T15:08:30;6.30;99.90
12119;DHT22;6123;48.864;9.200;2023-01-15T15:10:59;6.30;99.90
12119;DHT22;6123;48.864;9.200;2023-01-15T15:13:31;6.30;99.90
12119;DHT22;6123;48.864;9.200;2023-01-15T15:16:30;6.30;99.90
12119;DHT22;6123;48.864;9.200;2023-01-15T15:18:59;6.30;99.90
12119;DHT22;6123;48.864;9.200;2023-01-15T15:21:29;6.30;99.90
12119;DHT22;6123;48.864;9.200;2023-01-15T15:26:46;6.10;99.90
12119;DHT22;6123;48.864;9.200;2023-01-15T15:29:14;6.10;99.90
12119;DHT22;6123;48.864;9.200;2023-01-15T15:34:27;6.10;99.90
12119;DHT22;6123;48.864;9.200;2023-01-15T15:36:55;6.00;99.90
12119;DHT22;6123;48.864;9.200;2023-01-15T15:39:48;5.90;99.90
12119;DHT22;6123;48.864;9.200;2023-01-15T15:42:45;5.90;99.90
12119;DHT22;6123;48.864;9.200;2023-01-15T15:45:56;5.90;99.90
12119;DHT22;6123;48.864;9.200;2023-01-15T15:48:44;5.90;99.90
12119;DHT22;6123;48.864;9.200;2023-01-15T15:51:32;5.80;99.90
12119;DHT22;6123;48.864;9.200;2023-01-15T15:59:45;5.70;99.90
12119;DHT22;6123;48.864;9.200;2023-01-15T16:02:24;5.70;99.90
12119;DHT22;6123;48.864;9.200;2023-01-15T16:10:31;5.60;99.90
12119;DHT22;6123;48.864;9.200;2023-01-15T16:12:52;5.60;99.90
12119;DHT22;6123;48.864;9.200;2023-01-15T16:15:30;5.50;99.90
12119;DHT22;6123;48.864;9.200;2023-01-15T16:17:58;5.60;99.90
12119;DHT22;6123;48.864;9.200;2023-01-15T16:20:25;5.60;99.90
12119;DHT22;6123;48.864;9.200;2023-01-15T16:22:58;5.50;99.90
12119;DHT22;6123;48.864;9.200;2023-01-15T16:25:31;5.50;99.90
12119;DHT22;6123;48.864;9.200;2023-01-15T16:28:02;5.40;99.90
12119;DHT22;6123;48.864;9.200;2023-01-15T16:30:31;5.40;99.90
12119;DHT22;6123;48.864;9.200;2023-01-15T16:33:17;5.40;99.90
12119;DHT22;6123;48.864;9.200;2023-01-15T16:35:43;5.40;99.90
12119;DHT22;6123;48.864;9.200;2023-01-15T16:38:16;5.30;99.90
12119;DHT22;6123;48.864;9.200;2023-01-15T16:40:47;5.30;99.90
12119;DHT22;6123;48.864;9.200;2023-01-15T16:46:06;5.20;99.90
12119;DHT22;6123;48.864;9.200;2023-01-15T16:48:40;5.20;99.90
12119;DHT22;6123;48.864;9.200;2023-01-15T16:51:35;5.20;99.90
12119;DHT22;6123;48.864;9.200;2023-01-15T17:02:02;5.10;99.90
12119;DHT22;6123;48.864;9.200;2023-01-15T17:04:36;5.10;99.90
12119;DHT22;6123;48.864;9.200;2023-01-15T17:09:45;5.10;99.90
12119;DHT22;6123;48.864;9.200;2023-01-15T17:12:38;5.00;99.90
12119;DHT22;6123;48.864;9.200;2023-01-15T17:17:46;5.00;99.90
12119;DHT22;6123;48.864;9.200;2023-01-15T17:20:13;5.00;99.90
12119;DHT22;6123;48.864;9.200;2023-01-15T17:22:41;5.00;99.90
12119;DHT22;6123;48.864;9.200;2023-01-15T17:25:27;4.90;99.90
12119;DHT22;6123;48.864;9.200;2023-01-15T17:27:58;4.90;99.90
12119;DHT22;6123;48.864;9.200;2023-01-15T17:30:25;4.90;99.90
12119;DHT22;6123;48.864;9.200;2023-01-15T17:33:02;4.90;99.90
12119;DHT22;6123;48.864;9.200;2023-01-15T17:35:36;5.00;99.90
12119;DHT22;6123;48.864;9.200;2023-01-15T17:38:02;5.00;99.90
12119;DHT22;6123;48.864;9.200;2023-01-15T17:40:31;5.00;99.90
12119;DHT22;6123;48.864;9.200;2023-01-15T17:43:01;4.90;99.90
12119;DHT22;6123;48.864;9.200;2023-01-15T17:45:30;4.90;99.90
12119;DHT22;6123;48.864;9.200;2023-01-15T17:47:56;4.90;99.90
12119;DHT22;6123;48.864;9.200;2023-01-15T17:50:22;4.90;99.90
12119;DHT22;6123;48.864;9.200;2023-01-15T17:52:50;4.90;99.90
12119;DHT22;6123;48.864;9.200;2023-01-15T17:55:22;4.90;99.90
12119;DHT22;6123;48.864;9.200;2023-01-15T17:58:09;4.90;99.90
12119;DHT22;6123;48.864;9.200;2023-01-15T18:01:21;4.80;99.90
12119;DHT22;6123;48.864;9.200;2023-01-15T18:04:15;4.80;99.90
12119;DHT22;6123;48.864;9.200;2023-01-15T18:07:01;4.70;99.90
12119;DHT22;6123;48.864;9.200;2023-01-15T18:09:31;4.70;99.90
12119;DHT22;6123;48.864;9.200;2023-01-15T18:11:57;4.70;99.90
12119;DHT22;6123;48.864;9.200;2023-01-15T18:14:26;4.70;99.90
12119;DHT22;6123;48.864;9.200;2023-01-15T18:16:51;4.70;99.90
12119;DHT22;6123;48.864;9.200;2023-01-15T18:19:19;4.80;99.90
12119;DHT22;6123;48.864;9.200;2023-01-15T18:21:45;4.90;99.90
12119;DHT22;6123;48.864;9.200;2023-01-15T18:24:11;4.80;99.90
12119;DHT22;6123;48.864;9.200;2023-01-15T18:26:38;4.80;99.90
12119;DHT22;6123;48.864;9.200;2023-01-15T18:29:06;4.80;99.90
12119;DHT22;6123;48.864;9.200;2023-01-15T18:31:35;4.90;99.90
12119;DHT22;6123;48.864;9.200;2023-01-15T18:34:01;4.80;99.90
12119;DHT22;6123;48.864;9.200;2023-01-15T18:36:26;4.80;99.90
12119;DHT22;6123;48.864;9.200;2023-01-15T18:38:52;4.80;99.90
12119;DHT22;6123;48.864;9.200;2023-01-15T18:41:31;4.80;99.90
12119;DHT22;6123;48.864;9.200;2023-01-15T18:44:26;4.80;99.90
12119;DHT22;6123;48.864;9.200;2023-01-15T18:47:12;4.80;99.90
12119;DHT22;6123;48.864;9.200;2023-01-15T18:49:40;4.70;99.90
12119;DHT22;6123;48.864;9.200;2023-01-15T18:52:07;4.70;99.90
12119;DHT22;6123;48.864;9.200;2023-01-15T18:54:52;4.80;99.90
12119;DHT22;6123;48.864;9.200;2023-01-15T18:57:21;4.80;99.90
12119;DHT22;6123;48.864;9.200;2023-01-15T18:59:50;4.80;99.90
12119;DHT22;6123;48.864;9.200;2023-01-15T19:02:19;4.80;99.90
12119;DHT22;6123;48.864;9.200;2023-01-15T19:04:46;4.90;99.90
12119;DHT22;6123;48.864;9.200;2023-01-15T19:07:12;5.00;99.90
12119;DHT22;6123;48.864;9.200;2023-01-15T19:09:40;4.90;99.90
12119;DHT22;6123;48.864;9.200;2023-01-15T19:12:06;4.90;99.90
12119;DHT22;6123;48.864;9.200;2023-01-15T19:14:32;4.80;99.90
12119;DHT22;6123;48.864;9.200;2023-01-15T19:17:20;4.90;99.90
12119;DHT22;6123;48.864;9.200;2023-01-15T19:20:05;4.90;99.90
12119;DHT22;6123;48.864;9.200;2023-01-15T19:22:31;4.90;99.90